Terminal Aerodrome Forecast
Issued by NWS Charleston, WV

Current Version | Previous Version | Text Only | Print | Product List | Glossary Off
Versions: 1 2 3 4 5 6 7 8 9 10 11 12 13 14 15 16 17 18 19 20 21 22 23 24 25

000
FTUS41 KRLX 041725
TAFBKW
TAF
KBKW 041725Z 0418/0518 26004KT 5SM SHRA BR BKN006 OVC035
      TEMPO 0418/0419 BKN006
     FM041900 30006KT P6SM BKN035
     FM050300 00000KT 5SM BR SCT250
     FM050400 00000KT 2SM BR BKN001
     FM050900 00000KT 1/2SM FG OVC001
     FM051200 00000KT 2SM BR OVC007
     FM051400 00000KT 3SM SHRA OVC015=

USA.gov is the U.S. government's official web portal to all federal, state and local government web resources and services.